createdAt,value
2023-04-01T00:00:28.216Z,133.43
2023-04-01T00:01:28.243Z,130.33
2023-04-01T00:02:28.216Z,128.54
2023-04-01T00:03:28.492Z,126.41
2023-04-01T00:04:28.238Z,123.99
2023-04-01T00:05:28.183Z,122.81
2023-04-01T00:06:28.155Z,122.18
2023-04-01T00:07:30.692Z,120.69
2023-04-01T00:08:28.135Z,118.65
2023-04-01T00:09:29.988Z,119.15
2023-04-01T00:10:28.129Z,116.59
2023-04-01T00:11:28.086Z,115.07
2023-04-01T00:12:28.090Z,113.90
2023-04-01T00:13:28.065Z,113.29
2023-04-01T00:14:28.058Z,112.61
2023-04-01T00:15:28.046Z,111.71
2023-04-01T00:16:28.065Z,110.97
2023-04-01T00:17:28.020Z,109.17
2023-04-01T00:18:28.013Z,108.33
2023-04-01T00:19:27.976Z,107.91
2023-04-01T00:20:27.974Z,106.68
2023-04-01T00:21:27.984Z,106.68
2023-04-01T00:22:27.982Z,106.14
2023-04-01T00:23:27.925Z,105.14
2023-04-01T00:24:27.925Z,104.29
2023-04-01T00:25:27.901Z,103.72
2023-04-01T00:26:27.906Z,102.51
2023-04-01T00:27:27.880Z,101.34
2023-04-01T00:28:27.894Z,100.49
2023-04-01T00:29:27.911Z,98.66
2023-04-01T00:30:27.874Z,98.32
2023-04-01T00:31:27.909Z,97.75
2023-04-01T00:32:27.875Z,96.46
2023-04-01T00:33:27.826Z,95.63
2023-04-01T00:34:27.882Z,94.82
2023-04-01T00:35:27.794Z,95.28
2023-04-01T00:36:27.912Z,94.32
2023-04-01T00:37:27.768Z,94.00
2023-04-01T00:38:27.743Z,93.38
2023-04-01T00:39:27.731Z,93.27
2023-04-01T00:40:27.759Z,92.45
2023-04-01T00:41:27.716Z,91.95
2023-04-01T00:42:27.688Z,91.65
2023-04-01T00:43:27.668Z,90.76
2023-04-01T00:44:27.697Z,90.27
2023-04-01T00:45:27.681Z,89.98
2023-04-01T00:46:27.714Z,89.12
2023-04-01T00:47:27.675Z,88.00
2023-04-01T00:48:27.610Z,87.54
2023-04-01T00:49:27.595Z,87.27
2023-04-01T00:50:27.610Z,86.64
2023-04-01T00:51:27.579Z,86.11
2023-04-01T00:52:27.620Z,86.11
2023-04-01T00:53:27.543Z,85.58
2023-04-01T00:54:27.529Z,84.89
2023-04-01T00:55:27.524Z,84.29
2023-04-01T00:56:27.514Z,83.38
2023-04-01T00:57:27.527Z,83.29
2023-04-01T00:58:27.538Z,82.64
2023-04-01T00:59:27.480Z,81.75
2023-04-01T01:00:27.465Z,80.65
2023-04-01T01:01:27.500Z,80.42
2023-04-01T01:02:27.547Z,79.89
2023-04-01T01:03:27.509Z,79.06
2023-04-01T01:04:27.480Z,79.89
2023-04-01T01:05:27.597Z,78.84
2023-04-01T01:06:27.390Z,78.91
2023-04-01T01:07:27.377Z,79.51
2023-04-01T01:08:27.344Z,78.77
2023-04-01T01:09:27.368Z,79.21
2023-04-01T01:10:27.360Z,79.06
2023-04-01T01:11:27.946Z,78.91
2023-04-01T01:12:27.296Z,78.99
2023-04-01T01:13:27.291Z,78.25
2023-04-01T01:14:27.303Z,78.32
2023-04-01T01:15:27.259Z,77.32
2023-04-01T01:16:27.337Z,77.03
2023-04-01T01:17:27.272Z,76.82
2023-04-01T01:18:27.845Z,76.06
2023-04-01T01:19:27.210Z,75.85
2023-04-01T01:20:27.188Z,75.51
2023-04-01T01:21:27.185Z,74.84
2023-04-01T01:22:27.205Z,75.04
2023-04-01T01:23:27.167Z,74.90
2023-04-01T01:24:27.160Z,75.11
2023-04-01T01:25:27.182Z,74.64
2023-04-01T01:26:27.144Z,74.18
2023-04-01T01:27:27.149Z,73.85
2023-04-01T01:28:27.114Z,73.72
2023-04-01T01:29:27.070Z,73.79
2023-04-01T01:30:27.077Z,73.46
2023-04-01T01:31:27.081Z,74.05
2023-04-01T01:32:27.072Z,73.85
2023-04-01T01:33:27.082Z,73.79
2023-04-01T01:34:27.040Z,73.92
2023-04-01T01:35:27.006Z,73.53
2023-04-01T01:36:27.017Z,73.66
2023-04-01T01:37:27.001Z,73.85
2023-04-01T01:38:26.965Z,73.85
2023-04-01T01:39:26.953Z,73.46
2023-04-01T01:40:27.004Z,73.46
2023-04-01T01:41:26.942Z,73.15
2023-04-01T01:42:26.920Z,73.40
2023-04-01T01:43:26.907Z,73.02
2023-04-01T01:44:26.887Z,72.77
2023-04-01T01:45:26.869Z,72.89
2023-04-01T01:46:26.945Z,72.51
2023-04-01T01:47:26.891Z,72.89
2023-04-01T01:48:26.879Z,72.83
2023-04-01T01:49:26.845Z,72.64
2023-04-01T01:50:26.825Z,72.64
2023-04-01T01:51:26.791Z,72.70
2023-04-01T01:52:26.810Z,72.77
2023-04-01T01:53:26.771Z,72.45
2023-04-01T01:54:26.781Z,72.20
2023-04-01T01:55:26.748Z,72.64
2023-04-01T01:56:26.721Z,72.45
2023-04-01T01:57:26.740Z,72.51
2023-04-01T01:58:26.721Z,72.26
2023-04-01T01:59:26.726Z,72.33
2023-04-01T02:00:26.680Z,72.26
2023-04-01T02:01:26.877Z,71.89
2023-04-01T02:02:26.698Z,71.89
2023-04-01T02:03:26.656Z,71.83
2023-04-01T02:04:26.691Z,71.59
2023-04-01T02:05:26.649Z,71.41
2023-04-01T02:06:26.610Z,71.41
2023-04-01T02:07:26.602Z,71.29
2023-04-01T02:08:26.569Z,71.10
2023-04-01T02:09:26.575Z,70.98
2023-04-01T02:10:26.576Z,71.22
2023-04-01T02:11:26.576Z,70.75
2023-04-01T02:12:26.527Z,70.63
2023-04-01T02:13:26.532Z,70.63
2023-04-01T02:14:26.511Z,70.45
2023-04-01T02:15:26.501Z,70.33
2023-04-01T02:16:26.652Z,70.45
2023-04-01T02:17:26.497Z,70.39
2023-04-01T02:18:26.456Z,70.57
2023-04-01T02:19:26.442Z,70.68
2023-04-01T02:20:26.442Z,70.51
2023-04-01T02:21:26.426Z,70.57
2023-04-01T02:22:26.444Z,70.57
2023-04-01T02:23:26.410Z,70.86
2023-04-01T02:24:26.389Z,70.39
2023-04-01T02:25:26.378Z,70.57
2023-04-01T02:26:26.349Z,70.51
2023-04-01T02:27:26.353Z,70.51
2023-04-01T02:28:26.342Z,70.45
2023-04-01T02:29:26.316Z,70.39
2023-04-01T02:30:26.289Z,70.39
2023-04-01T02:31:26.321Z,70.45
2023-04-01T02:32:26.286Z,70.33
2023-04-01T02:33:26.255Z,70.04
2023-04-01T02:34:26.272Z,70.10
2023-04-01T02:35:26.252Z,69.86
2023-04-01T02:36:26.275Z,69.86
2023-04-01T02:37:26.230Z,70.21
2023-04-01T02:38:26.193Z,69.69
2023-04-01T02:39:26.190Z,70.04
2023-04-01T02:40:26.208Z,70.21
2023-04-01T02:41:26.171Z,69.86
2023-04-01T02:42:26.132Z,69.86
2023-04-01T02:43:26.129Z,69.92
2023-04-01T02:44:26.122Z,69.98
2023-04-01T02:45:26.101Z,69.75
2023-04-01T02:46:26.200Z,69.75
2023-04-01T02:47:26.136Z,69.86
2023-04-01T02:48:26.063Z,69.92
2023-04-01T02:49:26.076Z,69.75
2023-04-01T02:50:26.044Z,69.81
2023-04-01T02:51:26.034Z,70.15
2023-04-01T02:52:26.033Z,70.10
2023-04-01T02:53:25.998Z,70.51
2023-04-01T02:54:26.019Z,70.63
2023-04-01T02:55:25.980Z,70.63
2023-04-01T02:56:25.973Z,70.98
2023-04-01T02:57:25.993Z,71.10
2023-04-01T02:58:25.985Z,71.59
2023-04-01T02:59:25.927Z,71.47
2023-04-01T03:00:25.920Z,71.65
2023-04-01T03:01:25.990Z,71.89
2023-04-01T03:02:26.001Z,72.26
2023-04-01T03:03:25.944Z,72.26
2023-04-01T03:04:25.931Z,73.15
2023-04-01T03:05:25.878Z,73.15
2023-04-01T03:06:25.835Z,73.53
2023-04-01T03:07:25.857Z,73.79
2023-04-01T03:08:25.846Z,74.38
2023-04-01T03:09:25.810Z,74.18
2023-04-01T03:10:25.828Z,74.51
2023-04-01T03:11:25.807Z,74.57
2023-04-01T03:12:25.777Z,74.18
2023-04-01T03:13:25.756Z,74.31
2023-04-01T03:14:25.729Z,74.31
2023-04-01T03:15:25.741Z,74.38
2023-04-01T03:16:25.800Z,74.31
2023-04-01T03:17:25.745Z,74.51
2023-04-01T03:18:25.702Z,74.64
2023-04-01T03:19:25.685Z,74.51
2023-04-01T03:20:25.695Z,74.57
2023-04-01T03:21:25.665Z,74.77
2023-04-01T03:22:25.661Z,74.77
2023-04-01T03:23:25.628Z,74.57
2023-04-01T03:24:25.627Z,75.11
2023-04-01T03:25:25.596Z,75.04
2023-04-01T03:26:25.644Z,74.57
2023-04-01T03:27:25.582Z,74.90
2023-04-01T03:28:25.577Z,74.97
2023-04-01T03:29:25.553Z,74.97
2023-04-01T03:30:25.547Z,74.71
2023-04-01T03:31:25.579Z,74.64
2023-04-01T03:32:25.604Z,74.57
2023-04-01T03:33:25.570Z,74.90
2023-04-01T03:34:25.524Z,74.64
2023-04-01T03:35:25.478Z,74.77
2023-04-01T03:36:25.507Z,74.77
2023-04-01T03:37:25.457Z,74.71
2023-04-01T03:38:25.434Z,74.71
2023-04-01T03:39:25.415Z,74.97
2023-04-01T03:40:25.436Z,74.97
2023-04-01T03:41:25.408Z,74.71
2023-04-01T03:42:25.412Z,74.77
2023-04-01T03:43:25.370Z,75.24
2023-04-01T03:44:25.391Z,75.51
2023-04-01T03:45:25.355Z,75.78
2023-04-01T03:46:25.411Z,76.13
2023-04-01T03:47:25.359Z,76.20
2023-04-01T03:48:25.299Z,76.47
2023-04-01T03:49:25.294Z,76.47
2023-04-01T03:50:25.292Z,77.18
2023-04-01T03:51:25.257Z,77.03
2023-04-01T03:52:25.278Z,77.46
2023-04-01T03:53:25.235Z,77.53
2023-04-01T03:54:25.297Z,77.75
2023-04-01T03:55:25.224Z,77.75
2023-04-01T03:56:25.193Z,77.75
2023-04-01T03:57:25.239Z,78.11
2023-04-01T03:58:25.198Z,78.04
2023-04-01T03:59:25.155Z,78.47
2023-04-01T04:00:25.165Z,78.69
2023-04-01T04:01:25.129Z,79.44
2023-04-01T04:02:25.193Z,79.66
2023-04-01T04:03:25.259Z,79.81
2023-04-01T04:04:25.174Z,80.35
2023-04-01T04:05:25.075Z,80.27
2023-04-01T04:06:25.076Z,80.42
2023-04-01T04:07:25.063Z,80.65
2023-04-01T04:08:25.069Z,81.20
2023-04-01T04:09:25.062Z,81.36
2023-04-01T04:10:25.075Z,82.15
2023-04-01T04:11:25.024Z,82.88
2023-04-01T04:12:25.007Z,83.29
2023-04-01T04:13:25.002Z,83.38
2023-04-01T04:14:24.978Z,83.79
2023-04-01T04:15:24.956Z,85.15
2023-04-01T04:16:25.087Z,85.76
2023-04-01T04:17:24.960Z,86.20
2023-04-01T04:18:24.934Z,86.11
2023-04-01T04:19:24.906Z,86.02
2023-04-01T04:20:24.903Z,85.67
2023-04-01T04:21:24.894Z,86.29
2023-04-01T04:22:24.911Z,86.64
2023-04-01T04:23:24.873Z,86.91
2023-04-01T04:24:24.917Z,87.36
2023-04-01T04:25:24.822Z,88.09
2023-04-01T04:26:24.841Z,88.37
2023-04-01T04:27:24.816Z,89.21
2023-04-01T04:28:24.828Z,89.50
2023-04-01T04:29:24.808Z,89.98
2023-04-01T04:30:24.782Z,89.69
2023-04-01T04:31:24.782Z,91.05
2023-04-01T04:32:24.790Z,91.75
2023-04-01T04:33:24.754Z,92.05
2023-04-01T04:34:24.738Z,94.21
2023-04-01T04:35:24.716Z,95.39
2023-04-01T04:36:24.764Z,93.82
2023-04-01T04:37:24.680Z,95.31
2023-04-01T04:38:24.661Z,96.51
2023-04-01T04:39:24.667Z,97.18
2023-04-01T04:40:24.701Z,97.86
2023-04-01T04:41:24.657Z,99.66
2023-04-01T04:42:24.634Z,101.34
2023-04-01T04:43:24.602Z,102.58
2023-04-01T04:44:24.628Z,103.65
2023-04-01T04:45:24.587Z,104.36
2023-04-01T04:46:24.688Z,105.47
2023-04-01T04:47:24.598Z,106.61
2023-04-01T04:48:24.556Z,108.40
2023-04-01T04:49:24.541Z,109.74
2023-04-01T04:50:24.584Z,110.83
2023-04-01T04:51:24.524Z,110.39
2023-04-01T04:52:24.516Z,110.61
2023-04-01T04:53:24.482Z,110.68
2023-04-01T04:54:24.478Z,112.16
2023-04-01T04:55:24.463Z,112.68
2023-04-01T04:56:24.441Z,113.60
2023-04-01T04:57:24.496Z,114.37
2023-04-01T04:58:24.452Z,115.55
2023-04-01T04:59:24.412Z,115.79
2023-04-01T05:00:24.403Z,116.11
2023-04-01T05:01:24.406Z,117.24
2023-04-01T05:02:24.487Z,118.65
2023-04-01T05:03:24.600Z,120.95
2023-04-01T05:04:24.372Z,121.74
2023-04-01T05:05:24.316Z,122.18
2023-04-01T05:06:24.308Z,121.65
2023-04-01T05:07:24.313Z,120.95
2023-04-01T05:08:24.316Z,121.92
2023-04-01T05:09:24.355Z,120.09
2023-04-01T05:10:24.300Z,118.98
2023-04-01T05:11:24.250Z,117.90
2023-04-01T05:12:24.249Z,119.58
2023-04-01T05:13:24.244Z,122.18
2023-04-01T05:14:24.265Z,124.08
2023-04-01T05:15:24.260Z,125.28
2023-04-01T05:16:24.267Z,126.41
2023-04-01T05:17:24.236Z,127.08
2023-04-01T05:18:24.189Z,127.37
2023-04-01T05:19:24.162Z,130.13
2023-04-01T05:20:24.162Z,130.73
2023-04-01T05:21:24.120Z,130.84
2023-04-01T05:22:24.164Z,129.03
2023-04-01T05:23:24.150Z,128.93
2023-04-01T05:24:24.090Z,128.05
2023-04-01T05:25:24.090Z,127.27
2023-04-01T05:26:24.093Z,126.69
2023-04-01T05:27:24.047Z,125.94
2023-04-01T05:28:24.092Z,127.27
2023-04-01T05:29:24.026Z,125.75
2023-04-01T05:30:24.024Z,125.19
2023-04-01T05:31:24.098Z,123.71
2023-04-01T05:32:24.003Z,123.62
2023-04-01T05:33:23.991Z,122.81
2023-04-01T05:34:24.012Z,119.75
2023-04-01T05:35:24.082Z,119.07
2023-04-01T05:36:23.926Z,117.57
2023-04-01T05:37:23.914Z,115.87
2023-04-01T05:38:23.939Z,115.07
2023-04-01T05:39:23.976Z,113.06
2023-04-01T05:40:23.926Z,112.91
2023-04-01T05:41:23.878Z,110.97
2023-04-01T05:42:23.886Z,110.75
2023-04-01T05:43:23.862Z,109.31
2023-04-01T05:44:23.827Z,108.40
2023-04-01T05:45:23.820Z,107.91
2023-04-01T05:46:23.874Z,106.14
2023-04-01T05:47:23.858Z,105.61
2023-04-01T05:48:23.810Z,105.67
2023-04-01T05:49:24.065Z,106.21
2023-04-01T05:50:23.792Z,106.07
2023-04-01T05:51:23.768Z,106.41
2023-04-01T05:52:23.768Z,106.68
2023-04-01T05:53:23.718Z,107.08
2023-04-01T05:54:23.724Z,106.81
2023-04-01T05:55:23.687Z,106.88
2023-04-01T05:56:23.689Z,106.61
2023-04-01T05:57:23.831Z,106.47
2023-04-01T05:58:23.691Z,108.68
2023-04-01T05:59:23.648Z,110.46
2023-04-01T06:00:23.625Z,112.76
2023-04-01T06:01:23.656Z,112.68
2023-04-01T06:02:23.676Z,113.67
2023-04-01T06:03:23.678Z,114.21
2023-04-01T06:04:23.713Z,114.84
2023-04-01T06:05:23.567Z,116.27
2023-04-01T06:06:23.555Z,118.90
2023-04-01T06:07:23.557Z,121.13
2023-04-01T06:08:23.503Z,120.87
2023-04-01T06:09:23.561Z,121.30
2023-04-01T06:10:23.538Z,123.80
2023-04-01T06:11:23.477Z,125.00
2023-04-01T06:12:23.489Z,124.17
2023-04-01T06:13:23.476Z,123.26
2023-04-01T06:14:23.458Z,125.84
2023-04-01T06:15:23.420Z,127.56
2023-04-01T06:16:23.513Z,127.95
2023-04-01T06:17:23.470Z,129.63
2023-04-01T06:18:23.390Z,130.33
2023-04-01T06:19:23.408Z,132.80
2023-04-01T06:20:23.368Z,141.40
2023-04-01T06:21:23.361Z,143.57
2023-04-01T06:22:23.410Z,146.58
2023-04-01T06:23:23.352Z,153.40
2023-04-01T06:24:23.306Z,165.31
2023-04-01T06:25:23.315Z,168.63
2023-04-01T06:26:23.286Z,171.73
2023-04-01T06:27:23.300Z,175.13
2023-04-01T06:28:24.087Z,185.66
2023-04-01T06:29:23.300Z,188.84
2023-04-01T06:30:23.263Z,190.14
2023-04-01T06:31:23.324Z,198.00
2023-04-01T06:32:23.394Z,201.26
2023-04-01T06:33:23.202Z,201.38
2023-04-01T06:34:23.243Z,213.61
2023-04-01T06:35:23.183Z,225.56
2023-04-01T06:36:23.238Z,233.86
2023-04-01T06:37:23.149Z,248.07
2023-04-01T06:38:23.151Z,263.29
2023-04-01T06:39:23.166Z,273.53
2023-04-01T06:40:23.141Z,278.36
2023-04-01T06:41:23.089Z,281.45
2023-04-01T06:42:23.091Z,289.33
2023-04-01T06:43:23.077Z,306.21
2023-04-01T06:44:23.081Z,305.93
2023-04-01T06:45:23.034Z,315.87
2023-04-01T06:46:23.113Z,329.40
2023-04-01T06:47:23.017Z,347.40
2023-04-01T06:48:23.019Z,358.33
2023-04-01T06:49:22.999Z,369.54
2023-04-01T06:50:22.967Z,395.19
2023-04-01T06:51:22.988Z,427.37
2023-04-01T06:52:22.980Z,483.68
2023-04-01T06:53:22.951Z,529.00
2023-04-01T06:54:22.916Z,570.80
2023-04-01T06:55:23.090Z,577.17
2023-04-01T06:56:22.919Z,559.86
2023-04-01T06:57:22.922Z,565.51
2023-04-01T06:58:22.938Z,581.17
2023-04-01T06:59:22.869Z,612.42
2023-04-01T07:00:22.850Z,604.71
2023-04-01T07:01:22.891Z,573.72
2023-04-01T07:02:22.813Z,559.86
2023-04-01T07:03:22.852Z,567.42
2023-04-01T07:04:22.894Z,575.69
2023-04-01T07:05:22.786Z,567.90
2023-04-01T07:06:22.758Z,573.72
2023-04-01T07:07:22.754Z,571.77
2023-04-01T07:08:22.739Z,582.17
2023-04-01T07:09:22.749Z,595.06
2023-04-01T07:10:22.747Z,592.44
2023-04-01T07:11:22.697Z,606.34
2023-04-01T07:12:22.689Z,618.06
2023-04-01T07:13:22.679Z,651.00
2023-04-01T07:14:22.683Z,668.48
2023-04-01T07:15:22.652Z,684.14
2023-04-01T07:16:22.719Z,692.61
2023-04-01T07:17:22.752Z,667.82
2023-04-01T07:18:22.620Z,673.85
2023-04-01T07:19:22.608Z,685.54
2023-04-01T07:20:22.580Z,704.96
2023-04-01T07:21:22.562Z,732.64
2023-04-01T07:22:22.611Z,734.24
2023-04-01T07:23:22.549Z,711.68
2023-04-01T07:24:22.602Z,725.52
2023-04-01T07:25:22.508Z,738.27
2023-04-01T07:26:22.536Z,751.40
2023-04-01T07:27:22.535Z,783.80
2023-04-01T07:28:22.527Z,809.27
2023-04-01T07:29:22.518Z,867.74
2023-04-01T07:30:22.490Z,876.79
2023-04-01T07:31:22.522Z,849.65
2023-04-01T07:32:22.480Z,835.92
2023-04-01T07:33:22.415Z,830.76
2023-04-01T07:34:22.424Z,849.65
2023-04-01T07:35:22.395Z,863.84
2023-04-01T07:36:22.420Z,896.67
2023-04-01T07:37:22.380Z,913.72
2023-04-01T07:38:22.380Z,966.23
2023-04-01T07:39:22.357Z,955.26
2023-04-01T07:40:22.377Z,953.22
2023-04-01T07:41:22.324Z,940.56
2023-04-01T07:42:22.299Z,953.22
2023-04-01T07:43:22.290Z,932.09
2023-04-01T07:44:22.280Z,910.01
2023-04-01T07:45:22.287Z,908.17
2023-04-01T07:46:22.371Z,884.87
2023-04-01T07:47:22.222Z,918.72
2023-04-01T07:48:22.226Z,897.26
2023-04-01T07:49:22.221Z,866.62
2023-04-01T07:50:22.186Z,836.44
2023-04-01T07:51:22.204Z,823.13
2023-04-01T07:52:22.309Z,792.11
2023-04-01T07:53:22.165Z,754.77
2023-04-01T07:54:22.142Z,764.20
2023-04-01T07:55:22.161Z,769.01
2023-04-01T07:56:22.140Z,748.05
2023-04-01T07:57:22.161Z,727.87
2023-04-01T07:58:22.140Z,753.50
2023-04-01T07:59:22.101Z,757.75
2023-04-01T08:00:22.081Z,764.64
2023-04-01T08:01:22.066Z,750.56
2023-04-01T08:02:22.103Z,739.90
2023-04-01T08:03:22.113Z,736.65
2023-04-01T08:04:22.065Z,762.90
2023-04-01T08:05:22.021Z,752.24
2023-04-01T08:06:21.999Z,727.09
2023-04-01T08:07:21.988Z,716.23
2023-04-01T08:08:21.966Z,707.93
2023-04-01T08:09:21.964Z,731.84
2023-04-01T08:10:21.975Z,786.55
2023-04-01T08:11:21.912Z,796.33
2023-04-01T08:12:22.628Z,813.18
2023-04-01T08:13:21.891Z,814.16
2023-04-01T08:14:21.889Z,799.64
2023-04-01T08:15:21.887Z,770.77
2023-04-01T08:16:21.887Z,781.07
2023-04-01T08:17:21.859Z,789.78
2023-04-01T08:18:21.830Z,787.47
2023-04-01T08:19:21.824Z,778.81
2023-04-01T08:20:21.799Z,736.65
2023-04-01T08:21:21.792Z,762.04
2023-04-01T08:22:21.794Z,767.69
2023-04-01T08:23:21.759Z,773.43
2023-04-01T08:24:22.831Z,782.89
2023-04-01T08:25:21.731Z,815.65
2023-04-01T08:26:21.721Z,798.22
2023-04-01T08:27:21.738Z,791.18
2023-04-01T08:28:21.717Z,791.64
2023-04-01T08:29:21.686Z,765.95
2023-04-01T08:30:21.675Z,749.30
2023-04-01T08:31:21.699Z,716.23
2023-04-01T08:32:21.689Z,684.84
2023-04-01T08:33:21.621Z,662.55
2023-04-01T08:34:21.670Z,676.56
2023-04-01T08:35:21.625Z,691.18
2023-04-01T08:36:21.629Z,702.75
2023-04-01T08:37:21.575Z,691.18
2023-04-01T08:38:21.566Z,663.86
2023-04-01T08:39:21.557Z,663.86
2023-04-01T08:40:21.647Z,643.51
2023-04-01T08:41:21.529Z,636.80
2023-04-01T08:42:21.504Z,617.49
2023-04-01T08:43:21.499Z,573.72
2023-04-01T08:44:21.481Z,576.18
2023-04-01T08:45:21.471Z,573.23
2023-04-01T08:46:21.619Z,572.26
2023-04-01T08:47:21.470Z,575.20
2023-04-01T08:48:21.443Z,590.88
2023-04-01T08:49:21.424Z,615.23
2023-04-01T08:50:21.434Z,603.62
2023-04-01T08:51:21.496Z,607.44
2023-04-01T08:52:21.422Z,608.54
2023-04-01T08:53:21.449Z,639.23
2023-04-01T08:54:21.469Z,629.05
2023-04-01T08:55:21.343Z,613.54
2023-04-01T08:56:21.343Z,600.92
2023-04-01T08:57:21.355Z,603.62
2023-04-01T08:58:21.342Z,590.36
2023-04-01T08:59:21.314Z,587.26
2023-04-01T09:00:21.315Z,577.17
2023-04-01T09:01:21.295Z,560.32
2023-04-01T09:02:21.391Z,570.80
2023-04-01T09:03:21.314Z,581.67
2023-04-01T09:04:21.273Z,580.16
2023-04-01T09:05:21.202Z,572.26
2023-04-01T09:06:21.197Z,585.22
2023-04-01T09:07:21.195Z,590.36
2023-04-01T09:08:21.182Z,578.66
2023-04-01T09:09:21.185Z,582.17
2023-04-01T09:10:21.258Z,582.68
2023-04-01T09:11:21.153Z,570.31
2023-04-01T09:12:21.121Z,539.19
2023-04-01T09:13:21.127Z,525.28
2023-04-01T09:14:21.108Z,536.60
2023-04-01T09:15:21.120Z,531.51
2023-04-01T09:16:21.153Z,532.77
2023-04-01T09:17:21.106Z,527.34
2023-04-01T09:18:21.083Z,520.80
2023-04-01T09:19:21.074Z,520.80
2023-04-01T09:20:21.166Z,524.86
2023-04-01T09:21:21.001Z,531.09
2023-04-01T09:22:21.036Z,519.19
2023-04-01T09:23:20.990Z,514.81
2023-04-01T09:24:20.984Z,507.04
2023-04-01T09:25:20.992Z,496.55
2023-04-01T09:26:20.944Z,510.89
2023-04-01T09:27:20.956Z,509.73
2023-04-01T09:28:20.985Z,499.87
2023-04-01T09:29:20.930Z,506.27
2023-04-01T09:30:20.956Z,533.62
2023-04-01T09:31:20.933Z,542.67
2023-04-01T09:32:20.900Z,532.77
2023-04-01T09:33:20.884Z,545.76
2023-04-01T09:34:20.902Z,562.20
2023-04-01T09:35:20.862Z,548.88
2023-04-01T09:36:20.859Z,542.23
2023-04-01T09:37:20.797Z,543.11
2023-04-01T09:38:21.015Z,545.32
2023-04-01T09:39:20.798Z,524.86
2023-04-01T09:40:20.812Z,527.34
2023-04-01T09:41:20.753Z,515.60
2023-04-01T09:42:20.743Z,505.51
2023-04-01T09:43:20.738Z,502.11
2023-04-01T09:44:20.736Z,478.17
2023-04-01T09:45:20.733Z,453.94
2023-04-01T09:46:20.781Z,451.19
2023-04-01T09:47:20.665Z,425.48
2023-04-01T09:48:21.450Z,410.65
2023-04-01T09:49:20.650Z,387.22
2023-04-01T09:50:20.671Z,375.42
2023-04-01T09:51:20.659Z,371.20
2023-04-01T09:52:20.646Z,362.25
2023-04-01T09:53:20.617Z,345.23
2023-04-01T09:54:20.688Z,332.72
2023-04-01T09:55:20.573Z,308.21
2023-04-01T09:56:20.572Z,299.83
2023-04-01T09:57:20.621Z,305.08
2023-04-01T09:58:20.573Z,310.53
2023-04-01T09:59:20.549Z,302.57
2023-04-01T10:00:20.515Z,286.32
2023-04-01T10:01:20.521Z,280.02
2023-04-01T10:02:20.501Z,259.57
2023-04-01T10:03:20.513Z,244.41
2023-04-01T10:04:20.556Z,237.05
2023-04-01T10:05:20.491Z,235.36
2023-04-01T10:06:20.451Z,242.26
2023-04-01T10:07:20.423Z,228.52
2023-04-01T10:08:20.423Z,217.98
2023-04-01T10:09:21.324Z,224.64
2023-04-01T10:10:20.416Z,226.02
2023-04-01T10:11:20.380Z,222.23
2023-04-01T10:12:20.368Z,209.95
2023-04-01T10:13:20.359Z,203.99
2023-04-01T10:14:20.379Z,201.99
2023-04-01T10:15:20.331Z,210.88
2023-04-01T10:16:20.416Z,207.44
2023-04-01T10:17:20.292Z,206.28
2023-04-01T10:18:20.273Z,213.06
2023-04-01T10:19:21.521Z,234.69
2023-04-01T10:20:20.365Z,243.33
2023-04-01T10:21:20.425Z,244.05
2023-04-01T10:22:20.388Z,256.95
2023-04-01T10:23:20.868Z,265.83
2023-04-01T10:24:20.264Z,274.44
2023-04-01T10:25:20.207Z,295.54
2023-04-01T10:26:20.203Z,330.06
2023-04-01T10:27:20.174Z,335.08
2023-04-01T10:28:20.188Z,349.98
2023-04-01T10:29:20.302Z,355.63
2023-04-01T10:30:20.132Z,364.25
2023-04-01T10:31:20.127Z,380.64
2023-04-01T10:32:20.117Z,392.65
2023-04-01T10:33:20.130Z,392.88
2023-04-01T10:34:20.111Z,382.81
2023-04-01T10:35:20.064Z,387.44
2023-04-01T10:36:20.070Z,391.05
2023-04-01T10:37:20.035Z,387.67
2023-04-01T10:38:20.032Z,394.50
2023-04-01T10:39:20.051Z,432.04
2023-04-01T10:40:20.028Z,451.50
2023-04-01T10:41:19.980Z,453.33
2023-04-01T10:42:20.040Z,460.79
2023-04-01T10:43:19.957Z,459.53
2023-04-01T10:44:20.099Z,443.45
2023-04-01T10:45:19.927Z,437.39
2023-04-01T10:46:19.960Z,444.62
2023-04-01T10:47:19.889Z,452.11
2023-04-01T10:48:19.936Z,460.16
2023-04-01T10:49:19.893Z,459.84
2023-04-01T10:50:19.930Z,471.79
2023-04-01T10:51:19.838Z,465.90
2023-04-01T10:52:19.882Z,477.49
2023-04-01T10:53:19.831Z,479.53
2023-04-01T10:54:19.813Z,481.25
2023-04-01T10:55:19.792Z,463.97
2023-04-01T10:56:19.793Z,464.29
2023-04-01T10:57:19.792Z,453.33
2023-04-01T10:58:19.778Z,449.68
2023-04-01T10:59:19.768Z,445.21
2023-04-01T11:00:19.749Z,425.75
2023-04-01T11:01:19.772Z,412.92
2023-04-01T11:02:19.757Z,409.65
2023-04-01T11:03:19.826Z,413.69
2023-04-01T11:04:19.777Z,433.72
2023-04-01T11:05:20.858Z,465.90
2023-04-01T11:06:19.683Z,481.94
2023-04-01T11:07:20.000Z,481.25
2023-04-01T11:08:19.693Z,472.45
2023-04-01T11:09:20.506Z,465.25
2023-04-01T11:10:19.952Z,459.84
2023-04-01T11:11:19.650Z,464.93
2023-04-01T11:12:19.671Z,483.33
2023-04-01T11:13:19.552Z,474.12
2023-04-01T11:14:19.563Z,484.03
2023-04-01T11:15:19.539Z,501.36
2023-04-01T11:16:19.814Z,508.58
2023-04-01T11:17:19.807Z,499.87
2023-04-01T11:18:19.489Z,476.14
2023-04-01T11:19:20.315Z,446.99
2023-04-01T11:20:19.518Z,426.29
2023-04-01T11:21:19.491Z,419.89
2023-04-01T11:22:19.477Z,416.77
2023-04-01T11:23:19.456Z,421.74
2023-04-01T11:24:19.520Z,399.90
2023-04-01T11:25:19.496Z,372.88
2023-04-01T11:26:19.507Z,347.77
2023-04-01T11:27:19.403Z,349.24
2023-04-01T11:28:19.418Z,335.08
2023-04-01T11:29:19.375Z,308.79
2023-04-01T11:30:19.347Z,287.57
2023-04-01T11:31:19.388Z,284.11
2023-04-01T11:32:19.310Z,295.27
2023-04-01T11:33:20.857Z,312.88
2023-04-01T11:34:19.339Z,303.12
2023-04-01T11:35:19.287Z,295.01
2023-04-01T11:36:19.288Z,300.64
2023-04-01T11:37:19.330Z,315.87
2023-04-01T11:38:19.257Z,332.72
2023-04-01T11:39:19.243Z,330.06
2023-04-01T11:40:19.237Z,323.92
2023-04-01T11:41:19.251Z,320.15
2023-04-01T11:42:19.185Z,311.70
2023-04-01T11:43:32.307Z,326.80
2023-04-01T11:44:19.190Z,350.72
2023-04-01T11:45:19.149Z,352.22
2023-04-01T11:46:19.194Z,352.59
2023-04-01T11:47:19.136Z,347.04
2023-04-01T11:48:19.149Z,349.61
2023-04-01T11:49:19.094Z,376.70
2023-04-01T11:50:19.097Z,398.00
2023-04-01T11:51:19.092Z,427.37
2023-04-01T11:52:19.109Z,473.79
2023-04-01T11:53:19.039Z,519.19
2023-04-01T11:54:19.065Z,547.54
2023-04-01T11:55:19.026Z,552.49
2023-04-01T11:56:19.004Z,584.20
2023-04-01T11:57:19.020Z,580.66
2023-04-01T11:58:19.005Z,585.22
2023-04-01T11:59:18.979Z,618.63
2023-04-01T12:00:18.945Z,640.45
2023-04-01T12:01:18.939Z,654.80
2023-04-01T12:02:21.178Z,665.18
2023-04-01T12:03:19.060Z,658.66
2023-04-01T12:04:19.116Z,657.37
2023-04-01T12:05:18.874Z,672.50
2023-04-01T12:06:18.871Z,695.47
2023-04-01T12:07:19.409Z,707.93
2023-04-01T12:08:18.841Z,730.25
2023-04-01T12:09:18.850Z,727.87
2023-04-01T12:10:18.849Z,750.56
2023-04-01T12:11:18.815Z,766.82
2023-04-01T12:12:18.813Z,771.22
2023-04-01T12:13:18.771Z,770.77
2023-04-01T12:14:18.774Z,779.26
2023-04-01T12:15:18.770Z,785.17
2023-04-01T12:16:18.860Z,792.11
2023-04-01T12:17:18.752Z,769.01
2023-04-01T12:18:18.999Z,737.46
2023-04-01T12:19:18.730Z,710.18
2023-04-01T12:20:18.720Z,702.01
2023-04-01T12:21:18.749Z,709.43
2023-04-01T12:22:18.750Z,738.27
2023-04-01T12:23:18.654Z,752.24
2023-04-01T12:24:18.626Z,794.92
2023-04-01T12:25:18.655Z,823.13
2023-04-01T12:26:18.604Z,868.86
2023-04-01T12:27:19.398Z,910.63
2023-04-01T12:28:18.648Z,913.10
2023-04-01T12:29:18.582Z,930.79
2023-04-01T12:30:19.503Z,948.52
2023-04-01T12:31:18.555Z,948.52
2023-04-01T12:32:18.596Z,994.09
2023-04-01T12:33:18.569Z,980.32
2023-04-01T12:34:18.552Z,981.03
2023-04-01T12:35:18.496Z,972.52
2023-04-01T12:36:18.515Z,956.61